Time;durP1;ratioP1;P1;durP2;ratioP2;P2;SDS_P1;SDS_P2;PMS_P1;PMS_P2;Temp;Humidity;BMP_temperature;BMP_pressure;BME280_temperature;BME280_humidity;BME280_pressure;Samples;Min_cycle;Max_cycle;Signal;HPM_P1;HPM_P2
2023/03/08 00:00:17;;;;;;;2.25;1.30;;;21.10;29.50;;;;;;5048740;28;20048;-53
2023/03/08 00:02:43;;;;;;;2.20;1.50;;;21.10;29.50;;;;;;5048261;28;20036;-53
2023/03/08 00:05:09;;;;;;;1.92;1.50;;;21.10;29.50;;;;;;5049248;28;20363;-53
2023/03/08 00:07:36;;;;;;;1.88;1.38;;;21.00;29.40;;;;;;5049134;28;20034;-53
2023/03/08 00:10:02;;;;;;;1.85;1.40;;;21.10;29.50;;;;;;5051079;28;20025;-54
2023/03/08 00:12:28;;;;;;;2.00;1.33;;;21.00;29.40;;;;;;5049984;28;20017;-54
2023/03/08 00:14:54;;;;;;;2.15;1.52;;;21.00;29.50;;;;;;5048169;28;20064;-52
2023/03/08 00:17:20;;;;;;;2.15;1.75;;;21.00;29.50;;;;;;5045176;28;20061;-51
2023/03/08 00:19:46;;;;;;;2.28;1.50;;;21.00;29.50;;;;;;5049618;28;20108;-54
2023/03/08 00:22:11;;;;;;;2.08;1.50;;;21.00;29.50;;;;;;5048636;28;20433;-52
2023/03/08 00:24:38;;;;;;;3.08;1.60;;;21.00;29.50;;;;;;5048242;28;20052;-54
2023/03/08 00:27:04;;;;;;;2.33;1.27;;;21.00;29.50;;;;;;5049961;28;20033;-52
2023/03/08 00:29:31;;;;;;;2.40;1.50;;;21.00;29.50;;;;;;5050290;28;20108;-54
2023/03/08 00:31:57;;;;;;;2.33;1.30;;;21.00;29.50;;;;;;5048277;28;20115;-53
2023/03/08 00:34:23;;;;;;;1.92;1.50;;;20.90;29.50;;;;;;5049555;28;20094;-53
2023/03/08 00:36:49;;;;;;;2.15;1.63;;;20.90;29.50;;;;;;5046053;28;20392;-54
2023/03/08 00:39:16;;;;;;;2.22;1.52;;;20.90;29.50;;;;;;5046702;28;20029;-54
2023/03/08 00:41:42;;;;;;;2.35;1.65;;;20.90;29.60;;;;;;5048148;28;20082;-51
2023/03/08 00:44:08;;;;;;;2.33;1.40;;;20.90;29.60;;;;;;5051608;28;20041;-50
2023/03/08 00:46:34;;;;;;;2.33;1.48;;;20.90;29.60;;;;;;5048988;28;20425;-51
2023/03/08 00:49:00;;;;;;;1.88;1.40;;;20.90;29.60;;;;;;5050809;28;20041;-52
2023/03/08 00:51:26;;;;;;;2.20;1.65;;;20.90;29.60;;;;;;5046390;28;20086;-54
2023/03/08 00:53:52;;;;;;;1.80;1.50;;;20.90;29.60;;;;;;5050546;28;20036;-54
2023/03/08 00:56:18;;;;;;;3.03;1.90;;;20.80;29.60;;;;;;5050042;28;20075;-50
2023/03/08 00:58:44;;;;;;;3.20;1.48;;;20.80;29.60;;;;;;5047736;28;20032;-51
2023/03/08 01:01:16;;;;;;;3.53;2.00;;;20.80;29.60;;;;;;5045814;28;20044;-55
2023/03/08 01:03:42;;;;;;;2.97;1.52;;;20.80;29.60;;;;;;5047166;28;20048;-53
2023/03/08 01:06:11;;;;;;;2.63;1.70;;;20.80;29.60;;;;;;5048853;28;20033;-54
2023/03/08 01:08:41;;;;;;;1.58;1.25;;;20.80;29.60;;;;;;5049032;28;20029;-53
2023/03/08 01:11:18;;;;;;;2.90;1.60;;;20.70;29.60;;;;;;5045884;28;20037;-55
2023/03/08 01:13:45;;;;;;;2.20;1.70;;;20.80;29.70;;;;;;5045754;28;20464;-54
2023/03/08 01:16:20;;;;;;;2.30;1.63;;;20.80;29.70;;;;;;5047671;28;20037;-52
2023/03/08 01:18:47;;;;;;;1.77;1.40;;;20.80;29.70;;;;;;5043753;28;20029;-54
2023/03/08 01:21:12;;;;;;;1.63;1.30;;;20.80;29.70;;;;;;5048410;28;20025;-54
2023/03/08 01:23:39;;;;;;;2.47;1.63;;;20.70;29.70;;;;;;5049130;28;20491;-55
2023/03/08 01:26:13;;;;;;;2.70;1.70;;;20.70;29.70;;;;;;5049063;28;20025;-56
2023/03/08 01:28:40;;;;;;;1.98;1.50;;;20.70;29.70;;;;;;5045768;28;20036;-56
2023/03/08 01:31:16;;;;;;;1.48;1.30;;;20.70;29.70;;;;;;5049914;28;20441;-57
2023/03/08 01:33:43;;;;;;;2.58;1.75;;;20.70;29.80;;;;;;5045720;28;20325;-55
2023/03/08 01:36:14;;;;;;;2.35;1.55;;;20.70;29.80;;;;;;5048831;28;20053;-50
2023/03/08 01:38:43;;;;;;;1.60;1.33;;;20.70;29.80;;;;;;5048075;28;20064;-54
2023/03/08 01:41:19;;;;;;;2.88;1.90;;;20.60;29.70;;;;;;5048726;28;20396;-52
2023/03/08 01:43:45;;;;;;;2.05;1.50;;;20.60;29.70;;;;;;5048343;28;20127;-54
2023/03/08 01:46:34;;;;;;;2.97;1.63;;;20.60;29.80;;;;;;5049960;28;20052;-52
2023/03/08 01:49:32;;;;;;;1.98;1.55;;;20.60;29.70;;;;;;5045404;28;20509;-49
2023/03/08 01:52:05;;;;;;;2.25;1.67;;;20.60;29.80;;;;;;5046970;28;20445;-54
2023/03/08 01:55:02;;;;;;;2.57;1.80;;;20.60;29.80;;;;;;5030417;28;20025;-54
2023/03/08 01:57:38;;;;;;;1.98;1.30;;;20.60;29.80;;;;;;5036847;28;20355;-51
2023/03/08 02:00:14;;;;;;;2.25;1.42;;;20.50;29.80;;;;;;5042442;28;20124;-57
2023/03/08 02:02:49;;;;;;;2.92;1.63;;;20.50;29.80;;;;;;5049896;28;20036;-54
2023/03/08 02:05:16;;;;;;;2.80;1.60;;;20.50;29.80;;;;;;5050927;28;20020;-53
2023/03/08 02:07:44;;;;;;;2.80;1.60;;;20.50;29.80;;;;;;5051046;28;20029;-51
2023/03/08 02:10:11;;;;;;;2.78;1.75;;;20.50;29.90;;;;;;5072261;28;20033;-51
2023/03/08 02:12:39;;;;;;;3.15;1.80;;;20.50;29.90;;;;;;5050026;28;20116;-53
2023/03/08 02:15:09;;;;;;;3.25;1.75;;;20.50;29.90;;;;;;5048863;28;20143;-51
2023/03/08 02:17:38;;;;;;;2.28;1.70;;;20.50;29.90;;;;;;5050336;28;20420;-53
2023/03/08 02:20:28;;;;;;;1.90;1.67;;;20.50;29.90;;;;;;5053552;28;20104;-51
2023/03/08 02:23:10;;;;;;;2.53;1.60;;;20.50;29.90;;;;;;5051464;28;20068;-52
2023/03/08 02:25:37;;;;;;;2.50;1.65;;;20.50;30.00;;;;;;5047270;28;20021;-54
2023/03/08 02:28:03;;;;;;;2.30;1.60;;;20.40;29.90;;;;;;5048095;28;20503;-49
2023/03/08 02:30:35;;;;;;;2.38;1.88;;;20.40;29.90;;;;;;5052449;28;20025;-52
2023/03/08 02:33:02;;;;;;;3.42;2.13;;;20.40;30.00;;;;;;5052105;28;20036;-55
2023/03/08 02:35:28;;;;;;;2.55;1.70;;;20.40;29.90;;;;;;5047418;28;20052;-54
2023/03/08 02:37:55;;;;;;;2.80;1.95;;;20.40;30.00;;;;;;5078327;28;20032;-52
2023/03/08 02:40:21;;;;;;;2.38;2.00;;;20.40;30.00;;;;;;5052351;28;20112;-53
2023/03/08 02:42:46;;;;;;;2.20;1.63;;;20.40;30.00;;;;;;5047335;28;20413;-54
2023/03/08 02:45:12;;;;;;;2.30;1.83;;;20.40;30.00;;;;;;5052253;28;20031;-55
2023/03/08 02:47:38;;;;;;;2.42;1.67;;;20.40;30.00;;;;;;5049879;28;20036;-53
2023/03/08 02:50:05;;;;;;;2.35;1.80;;;20.40;30.00;;;;;;5047887;28;20033;-54
2023/03/08 02:52:31;;;;;;;2.38;1.77;;;20.40;30.00;;;;;;5049111;28;20112;-51
2023/03/08 02:54:57;;;;;;;2.55;1.88;;;20.40;30.00;;;;;;5051573;28;20107;-54
2023/03/08 02:57:24;;;;;;;3.45;1.77;;;20.40;30.00;;;;;;5049409;28;20056;-54
2023/03/08 02:59:51;;;;;;;2.55;1.92;;;20.30;30.00;;;;;;5049090;28;20452;-53
2023/03/08 03:02:17;;;;;;;2.97;2.08;;;20.30;30.00;;;;;;5045792;28;20025;-55
2023/03/08 03:04:43;;;;;;;2.60;1.60;;;20.30;30.00;;;;;;5050941;28;20460;-51
2023/03/08 03:07:09;;;;;;;2.72;1.77;;;20.30;30.00;;;;;;5051037;28;20116;-51
2023/03/08 03:09:35;;;;;;;2.67;1.95;;;20.30;30.00;;;;;;5048636;28;20020;-49
2023/03/08 03:12:02;;;;;;;2.53;2.10;;;20.30;30.20;;;;;;5047655;28;20036;-54
2023/03/08 03:14:30;;;;;;;2.50;2.00;;;20.30;30.00;;;;;;5050363;28;20048;-53
2023/03/08 03:16:57;;;;;;;2.25;1.73;;;20.30;30.00;;;;;;5075970;28;20030;-54
2023/03/08 03:19:24;;;;;;;2.53;2.05;;;20.30;30.00;;;;;;5053284;28;20428;-53
2023/03/08 03:21:49;;;;;;;3.20;1.98;;;20.30;30.00;;;;;;5051067;28;20487;-52
2023/03/08 03:24:15;;;;;;;2.58;1.95;;;20.30;30.00;;;;;;5051112;28;20516;-53
2023/03/08 03:26:50;;;;;;;2.38;1.80;;;20.30;30.10;;;;;;5050102;28;20036;-54
2023/03/08 03:29:16;;;;;;;3.35;2.20;;;20.20;30.00;;;;;;5050738;28;20036;-54
2023/03/08 03:31:44;;;;;;;2.67;2.10;;;20.20;30.00;;;;;;5045423;28;20071;-55
2023/03/08 03:34:11;;;;;;;3.08;2.33;;;20.20;30.00;;;;;;5046796;28;20025;-56
2023/03/08 03:36:38;;;;;;;3.05;2.00;;;20.20;30.00;;;;;;5049569;28;20029;-56
2023/03/08 03:39:04;;;;;;;2.83;2.05;;;20.20;30.10;;;;;;5050607;28;20033;-52
2023/03/08 03:41:32;;;;;;;3.83;2.53;;;20.20;30.10;;;;;;5050374;28;20021;-52
2023/03/08 03:44:06;;;;;;;3.03;2.45;;;20.20;30.10;;;;;;5050243;28;20052;-54
2023/03/08 03:46:32;;;;;;;4.07;2.80;;;20.20;30.10;;;;;;5048484;28;20033;-51
2023/03/08 03:48:58;;;;;;;3.45;2.97;;;20.20;30.10;;;;;;5031242;28;20017;-53
2023/03/08 03:51:30;;;;;;;3.83;2.88;;;20.20;30.10;;;;;;5049970;28;20020;-51
2023/03/08 03:54:07;;;;;;;3.90;3.00;;;20.20;30.10;;;;;;5049188;28;20056;-54
2023/03/08 03:56:33;;;;;;;3.92;3.17;;;20.20;30.20;;;;;;5050336;28;20071;-55
2023/03/08 03:59:00;;;;;;;3.22;2.83;;;20.20;30.20;;;;;;5050136;28;20033;-53
2023/03/08 04:01:29;;;;;;;4.85;3.80;;;20.20;30.30;;;;;;5048457;28;20444;-52
2023/03/08 04:04:03;;;;;;;4.85;3.78;;;20.20;30.20;;;;;;5046319;28;20088;-51
2023/03/08 04:06:33;;;;;;;5.68;4.03;;;20.10;30.20;;;;;;5033689;28;20344;-53
2023/03/08 04:09:05;;;;;;;5.43;4.20;;;20.10;30.20;;;;;;5048272;28;20029;-48
2023/03/08 04:11:37;;;;;;;5.93;4.55;;;20.10;30.20;;;;;;5047692;28;20166;-48
2023/03/08 04:14:04;;;;;;;5.95;4.65;;;20.10;30.20;;;;;;5046442;28;20041;-52
2023/03/08 04:16:37;;;;;;;6.15;4.88;;;20.10;30.20;;;;;;5049795;28;20171;-54
2023/03/08 04:19:12;;;;;;;6.45;5.20;;;20.10;30.20;;;;;;5046721;28;20048;-54
2023/03/08 04:21:44;;;;;;;6.38;5.10;;;20.10;30.20;;;;;;5044994;28;20029;-52
2023/03/08 04:24:10;;;;;;;7.35;5.72;;;20.10;30.20;;;;;;5047016;28;20186;-53
2023/03/08 04:26:36;;;;;;;7.18;5.78;;;20.10;30.20;;;;;;5049633;28;20112;-51
2023/03/08 04:29:04;;;;;;;6.90;5.53;;;20.10;30.30;;;;;;5050677;28;20040;-54
2023/03/08 04:31:33;;;;;;;7.20;5.72;;;20.10;30.30;;;;;;5063547;28;20040;-52
2023/03/08 04:34:03;;;;;;;7.82;6.07;;;20.10;30.30;;;;;;5045550;28;20433;-53
2023/03/08 04:36:29;;;;;;;8.40;6.75;;;20.00;30.30;;;;;;5049433;28;20025;-56
2023/03/08 04:38:57;;;;;;;7.82;6.30;;;20.10;30.40;;;;;;5034099;28;20032;-49
2023/03/08 04:41:24;;;;;;;7.85;6.40;;;20.10;30.40;;;;;;5045833;28;20021;-53
2023/03/08 04:43:57;;;;;;;8.88;7.18;;;20.10;30.40;;;;;;5050287;28;20463;-54
2023/03/08 04:46:32;;;;;;;9.02;7.07;;;20.00;30.40;;;;;;5048647;28;20021;-56
2023/03/08 04:49:00;;;;;;;10.23;7.40;;;20.00;30.40;;;;;;5051605;28;20024;-51
2023/03/08 04:51:29;;;;;;;9.45;7.10;;;20.00;30.40;;;;;;5047658;28;20488;-53
2023/03/08 04:54:00;;;;;;;8.98;6.72;;;20.00;30.40;;;;;;5033484;28;20036;-55
2023/03/08 04:56:26;;;;;;;9.52;6.78;;;20.00;30.40;;;;;;5048909;28;20029;-49
2023/03/08 04:58:52;;;;;;;8.38;6.68;;;20.00;30.50;;;;;;5046148;28;20025;-54
2023/03/08 05:01:22;;;;;;;9.30;7.13;;;20.00;30.50;;;;;;5045384;28;20025;-53
2023/03/08 05:03:48;;;;;;;8.63;6.55;;;20.00;30.50;;;;;;5049802;28;20041;-53
2023/03/08 05:06:16;;;;;;;9.35;6.97;;;20.00;30.50;;;;;;5030600;28;20025;-55
2023/03/08 05:08:42;;;;;;;9.10;7.10;;;20.00;30.50;;;;;;5045366;28;20059;-51
2023/03/08 05:11:09;;;;;;;9.27;7.10;;;19.90;30.40;;;;;;5044331;28;20106;-50
2023/03/08 05:13:37;;;;;;;8.13;6.80;;;20.00;30.50;;;;;;5044325;28;20055;-55
2023/03/08 05:16:06;;;;;;;9.10;6.95;;;19.90;30.40;;;;;;5038349;28;20107;-53
2023/03/08 05:18:32;;;;;;;8.88;7.13;;;19.90;30.40;;;;;;5044634;28;20112;-52
2023/03/08 05:21:11;;;;;;;10.23;7.78;;;19.90;30.50;;;;;;5046938;28;20582;-53
2023/03/08 05:23:38;;;;;;;8.90;7.07;;;19.90;30.50;;;;;;5045548;28;20037;-54
2023/03/08 05:26:06;;;;;;;8.65;6.95;;;19.90;30.40;;;;;;5049135;28;20045;-56
2023/03/08 05:28:35;;;;;;;8.82;7.40;;;19.90;30.50;;;;;;5045928;28;20334;-56
2023/03/08 05:31:12;;;;;;;9.18;7.15;;;19.90;31.10;;;;;;5048351;28;20040;-54
2023/03/08 05:33:39;;;;;;;9.15;7.85;;;19.90;30.50;;;;;;5052547;28;20029;-51
2023/03/08 05:36:07;;;;;;;10.07;7.55;;;19.90;30.50;;;;;;5053029;28;20037;-55
2023/03/08 05:38:33;;;;;;;9.35;7.03;;;19.90;30.50;;;;;;5052641;28;20043;-53
2023/03/08 05:41:03;;;;;;;8.45;6.75;;;19.90;30.50;;;;;;5053320;28;20050;-51
2023/03/08 05:43:30;;;;;;;8.55;7.15;;;19.90;30.50;;;;;;5046437;28;20475;-55
2023/03/08 05:45:58;;;;;;;9.13;7.10;;;19.90;30.50;;;;;;5052443;28;20065;-50
2023/03/08 05:48:26;;;;;;;10.05;7.47;;;19.90;30.50;;;;;;5049897;28;20033;-52
2023/03/08 05:50:53;;;;;;;9.38;6.90;;;19.90;30.50;;;;;;5048173;28;20025;-49
2023/03/08 05:53:20;;;;;;;9.93;7.82;;;19.90;30.50;;;;;;5051990;28;20160;-50
2023/03/08 05:55:46;;;;;;;8.55;6.78;;;19.90;30.50;;;;;;5051085;28;20021;-50
2023/03/08 05:58:12;;;;;;;8.52;7.07;;;19.90;30.60;;;;;;5050265;28;20403;-52
2023/03/08 06:00:38;;;;;;;9.18;7.13;;;19.90;30.60;;;;;;5035318;28;20077;-53
2023/03/08 06:03:04;;;;;;;8.77;6.90;;;19.90;30.60;;;;;;5050359;28;20130;-52
2023/03/08 06:05:33;;;;;;;9.60;7.32;;;19.80;30.50;;;;;;5050585;28;20025;-48
2023/03/08 06:07:59;;;;;;;9.45;7.78;;;19.80;30.50;;;;;;5053769;28;20025;-53
2023/03/08 06:10:25;;;;;;;8.73;6.85;;;19.80;30.50;;;;;;5052394;28;20025;-49
2023/03/08 06:12:53;;;;;;;8.63;6.85;;;19.80;30.60;;;;;;5050755;28;20064;-55
2023/03/08 06:15:22;;;;;;;10.02;7.50;;;19.80;30.50;;;;;;5049797;28;20082;-52
2023/03/08 06:17:51;;;;;;;8.40;6.82;;;19.80;30.60;;;;;;5049566;28;20395;-52
2023/03/08 06:20:19;;;;;;;8.45;6.82;;;19.80;30.60;;;;;;5050558;28;20112;-55
2023/03/08 06:22:48;;;;;;;8.88;7.03;;;19.80;30.60;;;;;;5049772;28;20037;-53
2023/03/08 06:25:14;;;;;;;8.10;6.68;;;19.80;30.60;;;;;;5050251;28;20344;-52
2023/03/08 06:27:41;;;;;;;8.43;6.88;;;19.80;30.60;;;;;;5033233;28;20427;-54
2023/03/08 06:30:14;;;;;;;8.10;6.38;;;19.80;30.60;;;;;;5050066;28;20021;-53
2023/03/08 06:32:41;;;;;;;7.65;6.35;;;19.80;30.60;;;;;;5052086;28;20090;-50
2023/03/08 06:35:08;;;;;;;7.72;6.55;;;19.80;30.60;;;;;;5051028;28;20036;-54
2023/03/08 06:37:37;;;;;;;7.32;6.20;;;19.70;30.60;;;;;;5048357;28;20040;-52
2023/03/08 06:40:07;;;;;;;7.10;6.00;;;19.80;30.70;;;;;;5050291;28;20025;-55
2023/03/08 06:42:34;;;;;;;6.55;5.60;;;19.70;30.60;;;;;;5050040;28;20234;-52
2023/03/08 06:45:00;;;;;;;7.35;6.28;;;19.70;30.60;;;;;;5051722;28;20100;-53
2023/03/08 06:47:27;;;;;;;7.18;6.10;;;19.70;30.60;;;;;;5051688;28;20441;-52
2023/03/08 06:49:53;;;;;;;6.00;5.38;;;19.70;30.60;;;;;;5052701;28;20379;-49
2023/03/08 06:52:19;;;;;;;6.68;5.43;;;19.70;30.60;;;;;;5049305;28;20112;-51
2023/03/08 06:54:45;;;;;;;5.97;5.35;;;19.70;30.60;;;;;;5050428;28;20047;-54
2023/03/08 06:57:11;;;;;;;5.97;5.28;;;19.70;30.60;;;;;;5049519;28;20449;-51
2023/03/08 06:59:37;;;;;;;6.03;5.40;;;19.70;30.60;;;;;;5050318;28;20032;-54
2023/03/08 07:02:03;;;;;;;6.57;5.22;;;19.70;30.50;;;;;;5048741;28;20058;-56
2023/03/08 07:04:29;;;;;;;5.72;4.65;;;19.70;30.60;;;;;;5050498;28;20033;-56
2023/03/08 07:06:54;;;;;;;5.38;4.40;;;19.70;30.60;;;;;;5052024;28;20040;-53
2023/03/08 07:09:20;;;;;;;6.78;4.25;;;19.70;30.80;;;;;;5052640;28;20036;-54
2023/03/08 07:11:46;;;;;;;5.30;4.55;;;19.70;30.90;;;;;;5049610;28;20376;-54
2023/03/08 07:14:12;;;;;;;6.13;4.25;;;19.70;31.10;;;;;;5048745;28;20388;-55
2023/03/08 07:16:38;;;;;;;5.00;4.22;;;19.70;31.20;;;;;;5049928;28;20033;-53
2023/03/08 07:19:03;;;;;;;4.95;4.07;;;19.80;31.30;;;;;;5046357;28;20039;-53
2023/03/08 07:21:29;;;;;;;5.03;4.18;;;19.70;31.50;;;;;;5049259;28;20445;-56
2023/03/08 07:23:55;;;;;;;5.30;4.30;;;19.80;31.50;;;;;;5049860;28;20047;-56
2023/03/08 07:26:21;;;;;;;5.40;4.70;;;19.80;31.60;;;;;;5052116;28;20036;-54
2023/03/08 07:28:49;;;;;;;4.78;4.28;;;19.90;31.60;;;;;;5050779;28;20033;-56
2023/03/08 07:31:15;;;;;;;6.60;4.65;;;19.90;31.60;;;;;;5042393;28;20022;-56
2023/03/08 07:33:41;;;;;;;7.10;4.60;;;19.90;31.60;;;;;;5041934;28;20574;-55
2023/03/08 07:36:07;;;;;;;6.75;4.75;;;19.90;31.60;;;;;;5048277;28;20017;-53
2023/03/08 07:38:32;;;;;;;7.00;5.43;;;19.90;31.60;;;;;;5047456;28;20025;-53
2023/03/08 07:40:58;;;;;;;7.82;5.95;;;19.90;31.50;;;;;;5044351;28;20044;-53
2023/03/08 07:43:24;;;;;;;8.70;6.38;;;20.00;31.50;;;;;;5047149;28;20048;-54
2023/03/08 07:46:00;;;;;;;8.38;6.47;;;20.00;31.50;;;;;;5049299;28;20021;-51
2023/03/08 07:48:26;;;;;;;9.25;6.22;;;20.00;31.40;;;;;;5042832;28;20043;-51
2023/03/08 07:50:52;;;;;;;8.85;6.53;;;20.00;31.30;;;;;;5041859;28;20021;-53
2023/03/08 07:53:18;;;;;;;10.75;7.13;;;20.00;31.30;;;;;;5043368;28;20021;-50
2023/03/08 07:55:44;;;;;;;9.75;7.15;;;20.10;31.30;;;;;;5042104;28;20341;-51
2023/03/08 07:58:10;;;;;;;10.57;7.70;;;20.10;31.30;;;;;;5041164;28;20586;-53
2023/03/08 08:00:36;;;;;;;11.98;8.10;;;20.10;31.30;;;;;;5047197;28;20053;-52
2023/03/08 08:03:02;;;;;;;11.73;8.88;;;20.00;31.20;;;;;;5046390;28;20462;-54
2023/03/08 08:05:28;;;;;;;11.23;9.15;;;20.00;31.20;;;;;;5048110;28;20033;-50
2023/03/08 08:07:54;;;;;;;10.88;8.95;;;20.00;31.20;;;;;;5044449;28;20040;-51
2023/03/08 08:10:20;;;;;;;12.38;9.93;;;20.10;31.30;;;;;;5041562;28;20671;-50
2023/03/08 08:12:46;;;;;;;10.65;8.60;;;20.10;31.30;;;;;;5045370;28;20029;-54
2023/03/08 08:15:12;;;;;;;12.55;9.50;;;20.00;31.20;;;;;;5046544;28;20056;-51
2023/03/08 08:17:37;;;;;;;12.57;9.35;;;20.10;31.30;;;;;;5050743;28;20031;-51
2023/03/08 08:20:06;;;;;;;11.35;9.23;;;20.00;31.20;;;;;;5051212;28;20102;-52
2023/03/08 08:22:35;;;;;;;12.05;9.77;;;20.00;31.20;;;;;;5052693;28;20112;-51
2023/03/08 08:25:05;;;;;;;13.30;9.90;;;20.10;31.20;;;;;;5054101;28;20029;-53
2023/03/08 08:27:31;;;;;;;12.80;10.00;;;20.10;31.20;;;;;;5053662;28;20029;-49
2023/03/08 08:29:58;;;;;;;11.38;8.90;;;20.10;31.20;;;;;;5043035;28;20025;-52
2023/03/08 08:32:24;;;;;;;12.55;9.88;;;20.10;31.10;;;;;;5044472;28;20052;-52
2023/03/08 08:34:50;;;;;;;11.65;9.18;;;20.10;31.10;;;;;;5051112;28;20078;-53
2023/03/08 08:37:16;;;;;;;11.32;9.30;;;20.10;31.10;;;;;;5043069;28;20400;-53
2023/03/08 08:39:42;;;;;;;12.95;9.82;;;20.00;31.00;;;;;;5047032;28;20044;-49
2023/03/08 08:42:08;;;;;;;11.95;9.50;;;20.10;31.10;;;;;;5048122;28;20122;-51
2023/03/08 08:44:34;;;;;;;13.57;10.02;;;20.10;31.00;;;;;;5045049;28;20087;-52
2023/03/08 08:46:59;;;;;;;12.23;9.18;;;20.10;31.00;;;;;;5044292;28;21762;-54
2023/03/08 08:49:25;;;;;;;11.63;8.75;;;20.10;31.10;;;;;;5050031;28;20156;-53
2023/03/08 08:51:52;;;;;;;9.63;8.48;;;20.10;31.00;;;;;;5044454;28;20112;-52
2023/03/08 08:54:18;;;;;;;13.68;9.32;;;20.10;31.00;;;;;;5043005;28;20032;-54
2023/03/08 08:56:44;;;;;;;14.02;9.45;;;20.10;31.00;;;;;;5068384;28;20025;-51
2023/03/08 08:59:11;;;;;;;11.90;9.43;;;20.10;31.00;;;;;;5039688;28;21389;-54
2023/03/08 09:01:42;;;;;;;10.93;8.38;;;20.10;31.10;;;;;;5049767;28;20403;-52
2023/03/08 09:04:13;;;;;;;11.52;9.05;;;20.10;31.00;;;;;;5052056;28;20060;-54
2023/03/08 09:06:39;;;;;;;11.40;9.23;;;20.10;31.60;;;;;;5044199;28;20021;-53
2023/03/08 09:09:06;;;;;;;11.07;9.00;;;20.10;30.90;;;;;;5042991;28;20025;-53
2023/03/08 09:11:36;;;;;;;10.20;7.93;;;20.10;31.00;;;;;;5048603;28;20025;-52
2023/03/08 09:14:02;;;;;;;9.85;7.78;;;20.10;31.10;;;;;;5053815;28;20110;-51
2023/03/08 09:16:31;;;;;;;10.20;8.10;;;20.10;31.10;;;;;;5071735;28;20036;-52
2023/03/08 09:18:58;;;;;;;10.38;7.90;;;20.10;31.00;;;;;;5060537;28;20024;-55
2023/03/08 09:21:25;;;;;;;8.85;7.22;;;20.10;30.90;;;;;;5064070;28;20035;-52
2023/03/08 09:24:01;;;;;;;15.13;7.70;;;20.10;30.90;;;;;;5061939;28;20040;-53
2023/03/08 09:26:31;;;;;;;8.88;7.43;;;20.10;30.80;;;;;;5052133;28;20155;-51
2023/03/08 09:29:03;;;;;;;9.75;7.32;;;20.10;30.80;;;;;;5069548;28;20335;-51
2023/03/08 09:31:30;;;;;;;9.32;7.07;;;20.10;30.80;;;;;;5052987;28;20997;-53
2023/03/08 09:33:56;;;;;;;9.32;7.35;;;20.10;30.70;;;;;;5052118;28;20045;-54
2023/03/08 09:36:22;;;;;;;7.70;6.47;;;20.10;30.60;;;;;;5052216;28;20094;-54
2023/03/08 09:38:49;;;;;;;8.15;6.35;;;20.10;30.60;;;;;;5052968;28;20456;-50
2023/03/08 09:41:20;;;;;;;8.15;6.50;;;20.10;30.60;;;;;;5052462;28;20364;-51
2023/03/08 09:44:11;;;;;;;8.10;6.70;;;20.10;30.50;;;;;;5050271;28;20419;-53
2023/03/08 09:46:52;;;;;;;8.25;6.15;;;20.10;30.50;;;;;;5052701;28;20040;-52
2023/03/08 09:49:30;;;;;;;9.25;6.80;;;20.10;30.40;;;;;;5043653;28;20356;-50
2023/03/08 09:52:09;;;;;;;7.65;6.35;;;20.10;30.40;;;;;;5053084;28;20448;-50
2023/03/08 09:54:37;;;;;;;6.93;5.78;;;20.10;30.40;;;;;;5051003;28;20440;-52
2023/03/08 09:57:10;;;;;;;6.97;5.82;;;20.10;30.40;;;;;;5052512;28;20124;-53
2023/03/08 09:59:55;;;;;;;8.27;6.30;;;20.10;30.30;;;;;;5054001;28;20021;-52
2023/03/08 10:02:48;;;;;;;8.70;6.10;;;20.10;30.30;;;;;;5050978;28;20064;-54
2023/03/08 10:05:38;;;;;;;8.73;7.07;;;20.10;30.30;;;;;;5051405;28;20390;-52
2023/03/08 10:08:30;;;;;;;9.15;7.07;;;20.10;30.30;;;;;;5047736;28;20031;-55
2023/03/08 10:11:02;;;;;;;10.82;8.70;;;20.10;30.40;;;;;;5044811;28;20488;-54
2023/03/08 10:13:29;;;;;;;11.25;8.43;;;20.20;30.50;;;;;;5047397;28;20053;-49
2023/03/08 10:16:08;;;;;;;10.95;8.27;;;20.20;30.60;;;;;;5047765;28;20059;-53
2023/03/08 10:18:42;;;;;;;10.50;7.97;;;20.20;30.50;;;;;;5051510;28;20021;-54
2023/03/08 10:21:16;;;;;;;9.23;6.82;;;20.30;30.50;;;;;;5054163;28;20037;-52
2023/03/08 10:23:47;;;;;;;9.68;7.82;;;20.30;30.50;;;;;;5048434;28;21679;-53
2023/03/08 10:26:14;;;;;;;8.27;7.00;;;20.40;30.50;;;;;;5050973;28;20452;-53
2023/03/08 10:28:40;;;;;;;9.38;7.00;;;20.40;30.40;;;;;;5051015;28;20041;-50
2023/03/08 10:31:22;;;;;;;8.65;6.90;;;20.50;30.40;;;;;;5047924;28;20040;-55
2023/03/08 10:33:53;;;;;;;11.48;6.90;;;20.50;30.30;;;;;;5049935;28;20461;-52
2023/03/08 10:36:21;;;;;;;8.73;6.80;;;20.60;30.20;;;;;;5045196;28;20452;-53
2023/03/08 10:39:09;;;;;;;8.48;6.28;;;20.70;30.20;;;;;;5039506;28;20043;-54
2023/03/08 10:41:56;;;;;;;8.75;7.15;;;20.80;30.20;;;;;;5050798;28;20040;-50
2023/03/08 10:44:43;;;;;;;9.00;7.00;;;20.90;30.10;;;;;;5041724;28;20423;-53
2023/03/08 10:47:29;;;;;;;10.52;8.20;;;21.00;30.20;;;;;;5046254;28;20033;-55
2023/03/08 10:50:23;;;;;;;11.05;8.07;;;21.00;30.20;;;;;;5047827;28;20029;-57
2023/03/08 10:52:50;;;;;;;11.27;9.07;;;21.10;30.10;;;;;;5044258;28;20051;-58
2023/03/08 10:55:18;;;;;;;12.55;9.68;;;21.20;30.30;;;;;;5046293;28;20033;-54
2023/03/08 10:58:00;;;;;;;13.27;10.90;;;21.20;30.60;;;;;;5043454;28;20484;-54
2023/03/08 11:00:38;;;;;;;15.05;10.80;;;21.30;30.80;;;;;;5041871;28;20051;-53
2023/03/08 11:03:21;;;;;;;14.50;11.43;;;21.30;30.80;;;;;;5053571;28;20033;-49
2023/03/08 11:05:52;;;;;;;13.68;10.52;;;21.40;30.80;;;;;;5055690;28;20040;-54
2023/03/08 11:08:26;;;;;;;12.13;9.65;;;21.50;30.70;;;;;;5054739;28;20104;-52
2023/03/08 11:11:12;;;;;;;13.25;9.90;;;21.50;30.50;;;;;;5053958;28;20047;-54
2023/03/08 11:13:40;;;;;;;10.77;8.52;;;21.60;30.30;;;;;;5053700;28;20045;-54
2023/03/08 11:16:10;;;;;;;9.43;8.10;;;21.60;30.20;;;;;;5057665;28;20098;-54
2023/03/08 11:19:14;;;;;;;12.75;8.20;;;21.70;30.00;;;;;;5072745;28;20441;-52
2023/03/08 11:22:10;;;;;;;10.05;8.13;;;21.80;30.00;;;;;;5036564;28;20452;-54
2023/03/08 11:24:49;;;;;;;10.27;7.43;;;21.80;29.90;;;;;;5046622;28;20051;-54
2023/03/08 11:27:33;;;;;;;8.77;6.90;;;21.80;29.80;;;;;;5053876;28;20059;-54
2023/03/08 11:30:13;;;;;;;8.93;6.70;;;21.90;29.80;;;;;;5050552;28;20033;-56
2023/03/08 11:32:54;;;;;;;8.63;6.15;;;21.90;29.70;;;;;;5064509;28;20036;-56
2023/03/08 11:35:58;;;;;;;8.50;6.30;;;22.00;29.80;;;;;;5056745;28;20328;-56
2023/03/08 11:38:27;;;;;;;8.98;7.15;;;22.00;29.90;;;;;;5062257;28;20100;-58
2023/03/08 11:40:58;;;;;;;10.15;8.23;;;22.00;30.00;;;;;;5054356;28;20044;-57
2023/03/08 11:43:39;;;;;;;10.48;8.82;;;22.00;30.00;;;;;;5053872;28;20036;-57
2023/03/08 11:46:23;;;;;;;13.00;9.48;;;22.10;30.00;;;;;;5053692;28;20487;-56
2023/03/08 11:49:23;;;;;;;13.68;10.35;;;22.10;30.00;;;;;;5046619;28;20036;-55
2023/03/08 11:52:09;;;;;;;11.43;9.77;;;22.10;30.20;;;;;;5050178;28;20082;-58
2023/03/08 11:54:49;;;;;;;12.82;9.85;;;22.10;30.00;;;;;;5046572;28;20462;-54
2023/03/08 11:57:16;;;;;;;11.80;9.48;;;22.10;30.00;;;;;;5039474;28;20044;-54
2023/03/08 11:59:51;;;;;;;12.35;8.82;;;22.10;29.90;;;;;;5037570;28;20025;-52
2023/03/08 12:02:33;;;;;;;10.85;8.88;;;22.10;29.80;;;;;;5040650;28;20107;-53
2023/03/08 12:05:06;;;;;;;11.07;8.48;;;22.20;29.70;;;;;;5041104;28;20071;-51
2023/03/08 12:07:38;;;;;;;10.23;8.10;;;22.10;29.60;;;;;;5040127;28;20084;-54
2023/03/08 12:10:28;;;;;;;9.02;7.43;;;22.20;29.50;;;;;;5043909;28;20024;-55
2023/03/08 12:13:14;;;;;;;9.98;8.00;;;22.10;29.40;;;;;;5037961;28;20065;-57
2023/03/08 12:15:45;;;;;;;9.57;7.65;;;22.10;29.30;;;;;;5041755;28;20790;-54
2023/03/08 12:18:21;;;;;;;8.73;7.28;;;22.10;29.30;;;;;;5045413;28;20037;-56
2023/03/08 12:20:55;;;;;;;9.15;7.07;;;22.10;29.20;;;;;;5042644;28;20022;-52
2023/03/08 12:23:35;;;;;;;8.02;6.88;;;22.10;29.20;;;;;;5046889;28;20037;-55
2023/03/08 12:26:12;;;;;;;8.05;6.60;;;22.10;29.10;;;;;;5049606;28;20075;-54
2023/03/08 12:28:42;;;;;;;7.30;6.20;;;22.10;29.00;;;;;;5041009;28;20369;-51
2023/03/08 12:31:21;;;;;;;7.90;6.47;;;22.10;29.00;;;;;;5048064;28;20044;-57
2023/03/08 12:33:47;;;;;;;8.15;6.18;;;22.10;29.00;;;;;;5039870;28;20041;-57
2023/03/08 12:36:14;;;;;;;8.25;5.78;;;22.00;28.90;;;;;;5040743;28;20057;-56
2023/03/08 12:38:44;;;;;;;7.78;5.85;;;22.00;28.90;;;;;;5045112;28;20083;-56
2023/03/08 12:41:30;;;;;;;6.65;5.63;;;22.00;28.80;;;;;;5040897;28;20040;-54
2023/03/08 12:44:02;;;;;;;6.60;5.18;;;22.00;28.80;;;;;;5040911;28;20033;-53
2023/03/08 12:46:47;;;;;;;6.35;5.43;;;22.00;28.80;;;;;;5045005;28;20383;-54
2023/03/08 12:49:26;;;;;;;5.65;5.00;;;22.00;28.80;;;;;;5039377;28;20030;-54
2023/03/08 12:52:03;;;;;;;6.18;5.10;;;22.00;28.70;;;;;;5039913;28;20056;-53
2023/03/08 12:54:33;;;;;;;5.03;4.22;;;22.00;28.70;;;;;;5040079;28;20083;-56
2023/03/08 12:57:12;;;;;;;5.95;4.70;;;21.90;28.70;;;;;;5040474;28;20025;-53
2023/03/08 12:59:40;;;;;;;6.18;4.03;;;22.00;29.20;;;;;;5041080;28;20036;-54
2023/03/08 13:02:29;;;;;;;5.72;4.20;;;21.90;28.60;;;;;;5044227;28;20086;-52